Time;durP1;ratioP1;P1;durP2;ratioP2;P2;SDS_P1;SDS_P2;PMS_P1;PMS_P2;Temp;Humidity;BMP_temperature;BMP_pressure;BME280_temperature;BME280_humidity;BME280_pressure;Samples;Min_cycle;Max_cycle;Signal;HPM_P1;HPM_P2
2021/12/17 00:04:37;;;;;;;28.15;20.13;;;5.40;99.90;;;;;;5073599;28;20517;-86
2021/12/17 00:07:12;;;;;;;22.70;16.95;;;5.40;99.90;;;;;;5074364;28;20036;-86
2021/12/17 00:09:40;;;;;;;24.65;17.85;;;5.40;99.90;;;;;;5072180;28;20016;-86
2021/12/17 00:12:11;;;;;;;21.27;16.55;;;6.10;99.90;;;;;;5072417;28;20021;-86
2021/12/17 00:14:38;;;;;;;23.70;16.60;;;5.50;99.90;;;;;;5075100;28;20028;-86
2021/12/17 00:17:09;;;;;;;20.70;15.35;;;5.50;99.90;;;;;;5074212;28;20028;-86
2021/12/17 00:49:33;;;;;;;22.75;15.52;;;5.20;99.90;;;;;;4958521;28;20154;-84
2021/12/17 00:52:01;;;;;;;23.48;15.82;;;5.30;99.90;;;;;;4959327;28;20122;-84
2021/12/17 00:54:38;;;;;;;20.88;15.73;;;5.20;99.90;;;;;;4955492;28;20583;-86
2021/12/17 00:57:12;;;;;;;20.40;15.43;;;5.30;99.90;;;;;;4956617;28;20071;-86
2021/12/17 00:59:40;;;;;;;23.10;15.65;;;5.20;99.90;;;;;;4959282;28;20039;-84
2021/12/17 01:02:11;;;;;;;21.77;15.35;;;5.20;99.90;;;;;;4958101;28;20054;-86
2021/12/17 01:04:40;;;;;;;21.33;15.57;;;5.20;99.90;;;;;;4958320;28;20038;-86
2021/12/17 01:07:07;;;;;;;18.42;14.05;;;5.40;99.90;;;;;;4973053;28;20043;-87
2021/12/17 01:09:33;;;;;;;20.65;15.65;;;5.90;99.90;;;;;;5008340;28;20114;-86
2021/12/17 01:11:59;;;;;;;22.40;15.13;;;5.80;99.90;;;;;;5012177;28;20084;-86
2021/12/17 01:14:28;;;;;;;20.20;14.65;;;5.40;99.90;;;;;;5009860;28;20038;-86
2021/12/17 01:16:54;;;;;;;21.65;15.75;;;5.30;99.90;;;;;;5008285;28;20413;-86
2021/12/17 01:24:44;;;;;;;21.55;14.95;;;5.80;99.90;;;;;;5009144;28;20022;-86
2021/12/17 01:35:23;;;;;;;24.15;16.20;;;5.70;99.90;;;;;;5077169;28;20036;-86
2021/12/17 01:43:01;;;;;;;22.58;15.27;;;5.30;99.90;;;;;;5076928;28;20052;-86
2021/12/17 01:45:35;;;;;;;22.92;15.40;;;5.40;99.90;;;;;;5073267;28;20412;-86
2021/12/17 01:48:03;;;;;;;20.58;15.27;;;5.40;99.90;;;;;;5076266;28;20107;-86
2021/12/17 01:56:39;;;;;;;21.80;15.88;;;5.20;99.90;;;;;;5076708;28;20036;-84
2021/12/17 02:01:34;;;;;;;23.20;16.25;;;5.60;99.90;;;;;;5075471;28;20127;-84
2021/12/17 02:04:03;;;;;;;21.85;16.52;;;5.00;99.90;;;;;;5075023;28;20081;-84
2021/12/17 02:06:31;;;;;;;26.48;18.48;;;5.00;99.90;;;;;;5073098;28;20785;-85
2021/12/17 02:08:59;;;;;;;23.20;17.20;;;5.50;99.90;;;;;;5077006;28;20098;-86
2021/12/17 02:20:19;;;;;;;20.52;14.82;;;5.70;99.90;;;;;;4976412;28;20069;-84
2021/12/17 02:31:30;;;;;;;23.45;16.48;;;5.40;99.90;;;;;;4929182;29;20811;-86
2021/12/17 02:33:57;;;;;;;23.52;15.90;;;5.90;99.90;;;;;;4929357;29;20039;-86
2021/12/17 02:36:27;;;;;;;23.30;16.35;;;5.80;99.90;;;;;;4900177;29;20048;-87
2021/12/17 02:39:21;;;;;;;24.83;17.20;;;5.40;99.90;;;;;;4934028;29;20472;-86
2021/12/17 02:47:11;;;;;;;22.55;17.10;;;5.80;99.90;;;;;;4929439;29;20063;-86
2021/12/17 02:49:40;;;;;;;23.85;16.90;;;5.50;99.90;;;;;;4954307;28;20569;-86
2021/12/17 02:52:07;;;;;;;23.00;16.60;;;5.40;99.90;;;;;;5005485;28;20486;-86
2021/12/17 02:54:35;;;;;;;21.60;16.20;;;5.40;99.90;;;;;;4991917;28;20522;-87
2021/12/17 02:57:01;;;;;;;23.55;16.38;;;5.40;99.90;;;;;;4994125;28;20170;-85
2021/12/17 02:59:27;;;;;;;25.00;16.80;;;5.40;99.90;;;;;;4995363;28;20534;-86
2021/12/17 03:01:56;;;;;;;23.60;16.80;;;5.50;99.90;;;;;;4995309;28;20053;-86
2021/12/17 03:04:22;;;;;;;22.88;15.95;;;5.50;99.90;;;;;;4995591;28;20034;-86
2021/12/17 03:06:48;;;;;;;20.83;16.05;;;5.60;99.90;;;;;;5033371;28;20060;-87
2021/12/17 03:09:16;;;;;;;20.73;15.30;;;5.50;99.90;;;;;;5071042;28;20430;-85
2021/12/17 03:11:42;;;;;;;26.30;16.80;;;5.80;99.90;;;;;;5077193;28;20401;-86
2021/12/17 03:14:08;;;;;;;21.13;16.77;;;5.50;99.90;;;;;;5074919;28;20028;-87
2021/12/17 03:16:39;;;;;;;23.60;16.80;;;6.00;99.90;;;;;;5075341;28;20028;-86
2021/12/17 03:23:25;;;;;;;25.10;16.63;;;5.50;99.90;;;;;;5065614;28;20032;-86
2021/12/17 03:24:44;;;;;;;23.35;16.45;;;5.90;99.90;;;;;;5073804;28;20039;-84
2021/12/17 03:27:09;;;;;;;20.75;14.75;;;5.90;99.90;;;;;;5072207;28;20025;-85
2021/12/17 03:29:35;;;;;;;19.83;15.02;;;5.50;99.90;;;;;;5076535;28;20097;-86
2021/12/17 03:32:01;;;;;;;22.67;15.57;;;5.50;99.90;;;;;;5075097;28;20036;-86
2021/12/17 03:34:27;;;;;;;21.80;15.10;;;6.00;99.90;;;;;;5074809;28;20082;-87
2021/12/17 03:36:56;;;;;;;21.65;15.23;;;5.40;99.90;;;;;;5074475;28;20458;-86
2021/12/17 03:39:27;;;;;;;19.70;15.32;;;5.30;99.90;;;;;;5054570;28;20021;-86
2021/12/17 03:41:56;;;;;;;22.85;15.75;;;5.80;99.90;;;;;;5084962;28;20031;-85
2021/12/17 03:44:21;;;;;;;21.00;15.35;;;6.00;99.90;;;;;;5074978;28;20017;-86
2021/12/17 03:46:48;;;;;;;20.88;15.07;;;6.00;99.90;;;;;;5074614;28;20081;-86
2021/12/17 03:49:15;;;;;;;21.35;15.45;;;5.70;99.90;;;;;;5074763;28;20024;-86
2021/12/17 03:51:51;;;;;;;21.35;15.55;;;5.80;99.90;;;;;;5073058;28;20032;-86
2021/12/17 03:54:17;;;;;;;23.30;16.20;;;5.40;99.90;;;;;;5070525;28;20038;-86
2021/12/17 03:56:43;;;;;;;24.63;16.15;;;6.00;99.90;;;;;;5076377;28;20029;-86
2021/12/17 03:59:10;;;;;;;22.50;16.27;;;5.30;99.90;;;;;;5072773;28;20393;-86
2021/12/17 04:01:40;;;;;;;20.40;15.40;;;5.80;99.90;;;;;;5074101;28;20039;-86
2021/12/17 04:04:06;;;;;;;19.70;15.25;;;5.40;99.90;;;;;;5074389;28;20028;-86
2021/12/17 04:06:33;;;;;;;21.42;15.05;;;5.90;99.90;;;;;;5071419;28;20020;-86
2021/12/17 04:08:58;;;;;;;20.80;15.27;;;5.40;99.90;;;;;;5074144;28;20048;-86
2021/12/17 04:11:24;;;;;;;20.75;14.60;;;5.50;99.90;;;;;;5075070;28;20431;-86
2021/12/17 04:13:55;;;;;;;21.85;15.20;;;6.10;99.90;;;;;;5073966;28;20052;-86
2021/12/17 04:16:26;;;;;;;21.48;15.38;;;6.00;99.90;;;;;;5074548;28;20028;-87
2021/12/17 04:18:53;;;;;;;22.63;15.52;;;5.40;99.90;;;;;;5074185;28;20111;-86
2021/12/17 04:21:19;;;;;;;20.25;14.73;;;5.90;99.90;;;;;;5070061;28;20031;-86
2021/12/17 04:23:47;;;;;;;20.63;15.02;;;5.50;99.90;;;;;;5076078;28;20546;-86
2021/12/17 04:26:15;;;;;;;21.02;15.43;;;6.10;99.90;;;;;;5074135;28;20415;-87
2021/12/17 04:28:45;;;;;;;20.25;14.80;;;5.50;99.90;;;;;;5074097;28;20128;-86
2021/12/17 04:31:11;;;;;;;22.17;15.52;;;5.90;99.90;;;;;;5065356;28;20032;-86
2021/12/17 04:33:39;;;;;;;21.45;14.93;;;5.40;99.90;;;;;;5071771;28;20074;-86
2021/12/17 04:36:05;;;;;;;21.73;14.77;;;6.00;99.90;;;;;;5072987;28;20017;-87
2021/12/17 04:38:31;;;;;;;20.52;14.60;;;5.50;99.90;;;;;;5074094;28;20017;-86
2021/12/17 04:41:12;;;;;;;21.17;15.15;;;5.40;99.90;;;;;;5073641;28;20029;-84
2021/12/17 04:43:49;;;;;;;20.92;15.88;;;5.50;99.90;;;;;;5074095;28;20036;-85
2021/12/17 04:59:37;;;;;;;22.75;15.23;;;5.90;99.90;;;;;;5074453;28;20151;-84
2021/12/17 05:02:03;;;;;;;20.60;15.60;;;5.50;99.90;;;;;;5073814;28;20127;-84
2021/12/17 05:04:29;;;;;;;20.50;14.95;;;5.50;99.90;;;;;;5064178;28;20047;-84
2021/12/17 05:06:54;;;;;;;19.15;14.20;;;5.40;99.90;;;;;;5073615;28;20020;-84
2021/12/17 05:09:35;;;;;;;20.88;14.70;;;5.50;99.90;;;;;;5069627;28;20036;-84
2021/12/17 05:19:58;;;;;;;20.45;14.55;;;5.40;99.90;;;;;;5073648;28;20495;-86
2021/12/17 05:22:26;;;;;;;20.88;15.23;;;5.00;99.90;;;;;;5073757;28;20032;-86
2021/12/17 05:24:52;;;;;;;22.40;15.32;;;5.30;99.90;;;;;;5073517;28;20464;-86
2021/12/17 05:27:18;;;;;;;18.55;13.88;;;5.20;99.90;;;;;;5069415;28;20071;-86
2021/12/17 05:29:45;;;;;;;20.95;14.60;;;4.60;99.90;;;;;;5075435;28;20071;-86
2021/12/17 05:32:11;;;;;;;17.58;13.63;;;4.50;99.90;;;;;;5074270;28;20090;-86
2021/12/17 05:34:36;;;;;;;22.88;15.45;;;4.90;99.90;;;;;;5077105;28;20024;-86
2021/12/17 05:37:02;;;;;;;24.70;17.88;;;4.30;99.90;;;;;;5077506;28;20450;-86
2021/12/17 05:39:28;;;;;;;24.70;17.40;;;4.20;99.90;;;;;;5073137;28;20024;-86
2021/12/17 05:41:54;;;;;;;23.73;17.48;;;4.60;99.90;;;;;;5077739;28;20040;-86
2021/12/17 05:44:20;;;;;;;25.88;17.15;;;3.90;99.90;;;;;;5076057;28;20025;-86
2021/12/17 05:46:49;;;;;;;27.85;17.95;;;3.80;99.90;;;;;;5076845;28;20047;-86
2021/12/17 05:49:20;;;;;;;24.10;17.08;;;3.80;99.90;;;;;;5076734;28;20055;-86
2021/12/17 05:51:45;;;;;;;24.33;16.63;;;3.60;99.90;;;;;;5075771;28;20026;-86
2021/12/17 05:54:12;;;;;;;23.77;16.20;;;3.90;99.90;;;;;;5073269;28;20123;-86
2021/12/17 05:56:39;;;;;;;23.90;16.90;;;4.10;99.90;;;;;;5070748;28;20013;-86
2021/12/17 05:59:06;;;;;;;26.23;16.98;;;3.50;99.90;;;;;;5076571;28;20064;-86
2021/12/17 06:01:31;;;;;;;24.70;16.63;;;4.10;99.90;;;;;;5076436;28;20086;-86
2021/12/17 06:03:57;;;;;;;26.60;17.50;;;4.00;99.90;;;;;;5076846;28;20032;-86
2021/12/17 06:06:31;;;;;;;25.30;17.45;;;3.30;99.90;;;;;;5072138;28;20032;-86
2021/12/17 06:08:57;;;;;;;25.85;17.75;;;3.30;99.90;;;;;;5076545;28;20473;-86
2021/12/17 06:11:23;;;;;;;26.15;17.33;;;4.00;99.90;;;;;;5077193;28;20094;-86
2021/12/17 06:13:48;;;;;;;27.52;18.35;;;4.00;99.90;;;;;;5076746;28;20115;-86
2021/12/17 06:16:15;;;;;;;29.33;19.38;;;3.20;99.90;;;;;;5076423;28;20511;-86
2021/12/17 06:18:40;;;;;;;32.67;20.40;;;3.20;99.90;;;;;;5074776;28;20028;-86
2021/12/17 06:21:06;;;;;;;29.30;19.65;;;3.20;99.90;;;;;;5073881;28;20025;-86
2021/12/17 06:23:32;;;;;;;25.35;17.95;;;3.10;99.90;;;;;;5077812;28;20028;-86
2021/12/17 06:25:57;;;;;;;26.77;18.00;;;3.00;99.90;;;;;;5077251;28;20107;-86
2021/12/17 06:28:23;;;;;;;26.42;17.30;;;3.00;99.90;;;;;;5076012;28;20040;-86
2021/12/17 06:30:48;;;;;;;29.83;19.40;;;3.00;99.90;;;;;;5075363;28;20111;-86
2021/12/17 06:33:14;;;;;;;30.08;19.27;;;3.00;99.90;;;;;;5072135;28;20037;-86
2021/12/17 06:35:40;;;;;;;31.88;21.35;;;2.90;99.90;;;;;;5077022;28;20037;-86
2021/12/17 06:38:06;;;;;;;35.70;22.40;;;2.90;99.90;;;;;;5075176;28;20123;-86
2021/12/17 06:40:32;;;;;;;38.10;24.17;;;2.90;99.90;;;;;;5075536;28;20025;-86
2021/12/17 06:42:58;;;;;;;34.65;22.40;;;2.90;99.90;;;;;;5074996;28;20028;-86
2021/12/17 06:45:40;;;;;;;33.58;20.92;;;2.80;99.90;;;;;;5070826;28;20029;-87
2021/12/17 06:48:05;;;;;;;32.92;20.50;;;2.90;99.90;;;;;;5073653;28;20504;-86
2021/12/17 07:01:13;;;;;;;30.20;19.75;;;2.80;99.90;;;;;;5075181;28;20501;-85
2021/12/17 07:09:46;;;;;;;30.30;19.30;;;2.80;99.90;;;;;;5073075;28;20108;-86
2021/12/17 07:23:03;;;;;;;28.45;19.33;;;3.30;99.90;;;;;;5074653;28;20085;-86
2021/12/17 07:33:44;;;;;;;32.92;21.17;;;3.10;99.90;;;;;;4993292;28;20080;-86
2021/12/17 07:36:13;;;;;;;31.63;20.55;;;4.60;99.90;;;;;;4991485;28;20054;-86
2021/12/17 07:38:47;;;;;;;31.02;20.05;;;4.60;99.90;;;;;;4995275;28;20096;-86
2021/12/17 07:41:13;;;;;;;27.98;18.95;;;5.30;99.90;;;;;;4994170;28;20145;-86
2021/12/17 07:43:40;;;;;;;26.27;17.85;;;5.40;99.90;;;;;;4994240;28;20069;-86
2021/12/17 07:46:09;;;;;;;29.77;19.83;;;4.90;99.90;;;;;;4994152;28;20034;-86
2021/12/17 07:48:37;;;;;;;27.65;18.70;;;5.90;99.90;;;;;;4991634;28;20026;-86
2021/12/17 07:51:06;;;;;;;41.97;18.77;;;6.60;99.90;;;;;;4992152;28;20146;-86
2021/12/17 07:53:32;;;;;;;27.25;18.67;;;7.40;99.90;;;;;;4995320;28;20030;-86
2021/12/17 07:55:58;;;;;;;25.92;18.30;;;8.40;99.90;;;;;;4994101;28;20449;-86
2021/12/17 07:58:24;;;;;;;28.10;18.23;;;8.10;99.90;;;;;;4993936;28;20026;-86
2021/12/17 08:00:50;;;;;;;25.20;18.05;;;8.50;99.90;;;;;;4993316;28;20064;-86
2021/12/17 08:03:15;;;;;;;22.92;17.80;;;9.50;99.90;;;;;;5038632;28;20514;-88
2021/12/17 08:05:42;;;;;;;27.02;18.13;;;9.30;99.90;;;;;;5069889;28;20025;-87
2021/12/17 08:08:09;;;;;;;23.17;17.73;;;10.10;99.90;;;;;;5072289;28;20489;-87
2021/12/17 08:10:35;;;;;;;21.67;17.10;;;11.10;99.90;;;;;;5073190;28;20190;-87
2021/12/17 08:13:00;;;;;;;23.63;17.98;;;11.10;99.90;;;;;;5074360;28;20115;-86
2021/12/17 08:15:35;;;;;;;22.90;17.95;;;10.30;99.90;;;;;;5070352;28;20040;-86
2021/12/17 08:18:26;;;;;;;24.50;17.65;;;10.10;99.90;;;;;;5073559;28;20097;-86
2021/12/17 08:31:33;;;;;;;22.10;16.60;;;15.60;99.90;;;;;;5073768;28;20055;-86
2021/12/17 08:34:02;;;;;;;21.30;16.55;;;14.50;99.90;;;;;;5073045;28;20424;-86
2021/12/17 08:36:28;;;;;;;20.98;16.50;;;16.30;99.90;;;;;;5070934;28;20040;-86
2021/12/17 08:38:54;;;;;;;20.10;16.08;;;17.20;99.90;;;;;;5074638;28;20021;-86
2021/12/17 08:41:21;;;;;;;21.10;16.65;;;16.80;99.90;;;;;;5073612;28;20035;-86
2021/12/17 08:43:47;;;;;;;20.92;16.80;;;17.80;99.90;;;;;;5073850;28;20465;-86
2021/12/17 08:46:13;;;;;;;20.35;17.20;;;16.50;99.90;;;;;;5074163;28;20111;-86
2021/12/17 08:48:39;;;;;;;23.38;18.45;;;17.30;99.90;;;;;;5071333;28;20024;-85
2021/12/17 08:51:09;;;;;;;22.17;17.33;;;16.20;99.90;;;;;;5072143;28;20503;-84
2021/12/17 08:53:36;;;;;;;20.98;18.08;;;17.00;99.90;;;;;;5074258;28;20078;-85
2021/12/17 08:56:03;;;;;;;25.92;17.80;;;18.40;99.90;;;;;;5083373;28;20038;-84
2021/12/17 08:58:29;;;;;;;20.90;17.40;;;18.40;99.90;;;;;;5081108;28;20364;-84
2021/12/17 09:00:55;;;;;;;23.80;17.15;;;18.10;99.90;;;;;;5073414;28;20103;-84
2021/12/17 09:03:20;;;;;;;19.40;16.95;;;18.10;99.90;;;;;;5069616;28;20041;-84
2021/12/17 09:05:46;;;;;;;25.48;18.60;;;19.40;99.90;;;;;;5075907;28;20085;-85
2021/12/17 09:08:13;;;;;;;24.15;17.60;;;19.90;99.90;;;;;;5076781;28;20037;-85
2021/12/17 09:10:41;;;;;;;19.20;16.90;;;19.10;99.90;;;;;;5066444;28;20032;-84
2021/12/17 09:13:07;;;;;;;23.15;18.60;;;19.50;99.90;;;;;;5078075;28;20028;-85
2021/12/17 09:15:33;;;;;;;23.13;18.42;;;18.70;99.90;;;;;;5075283;28;20036;-85
2021/12/17 09:17:58;;;;;;;19.35;16.90;;;20.00;99.90;;;;;;5077199;28;20033;-85
2021/12/17 09:20:24;;;;;;;24.52;18.20;;;21.00;99.90;;;;;;5078441;28;20039;-85
2021/12/17 09:22:51;;;;;;;24.50;17.42;;;21.10;99.90;;;;;;5077499;28;20047;-85
2021/12/17 09:25:17;;;;;;;22.73;17.52;;;21.60;99.90;;;;;;5077504;28;20024;-85
2021/12/17 09:27:43;;;;;;;21.65;17.95;;;21.80;99.90;;;;;;5075814;28;20089;-85
2021/12/17 09:30:11;;;;;;;24.65;18.23;;;21.70;99.90;;;;;;5075372;28;20041;-85
2021/12/17 09:32:39;;;;;;;21.63;17.63;;;21.90;99.90;;;;;;5079190;28;20029;-85
2021/12/17 09:35:06;;;;;;;21.23;17.77;;;22.60;99.90;;;;;;5078062;28;20029;-85
2021/12/17 09:37:33;;;;;;;20.70;17.08;;;23.20;99.90;;;;;;5067441;28;20037;-85
2021/12/17 09:39:59;;;;;;;23.65;17.73;;;23.10;99.90;;;;;;5077621;28;20020;-86
2021/12/17 09:42:25;;;;;;;20.38;18.15;;;23.40;99.90;;;;;;5072708;28;20485;-86
2021/12/17 09:44:51;;;;;;;23.00;17.38;;;23.40;99.90;;;;;;5078342;28;20028;-86
2021/12/17 09:47:17;;;;;;;21.83;18.85;;;23.70;99.90;;;;;;5076838;28;20111;-86
2021/12/17 09:49:42;;;;;;;21.17;17.42;;;23.90;99.90;;;;;;5076120;28;20043;-86
2021/12/17 09:52:09;;;;;;;18.98;16.98;;;23.60;99.90;;;;;;5068469;28;20061;-86
2021/12/17 09:54:36;;;;;;;21.52;17.48;;;23.30;99.90;;;;;;5070863;28;20384;-85
2021/12/17 09:57:02;;;;;;;19.35;17.35;;;24.10;99.90;;;;;;5075322;28;20090;-84
2021/12/17 09:59:28;;;;;;;21.20;17.17;;;24.70;99.90;;;;;;5079019;28;20027;-85
2021/12/17 10:01:54;;;;;;;19.75;17.08;;;24.40;99.90;;;;;;5076461;28;20461;-85
2021/12/17 10:04:26;;;;;;;19.17;16.23;;;24.40;99.90;;;;;;5077102;28;20484;-85
2021/12/17 10:06:53;;;;;;;17.73;16.02;;;24.90;99.90;;;;;;5076371;28;20201;-85
2021/12/17 10:09:19;;;;;;;17.77;15.98;;;25.10;99.90;;;;;;5071068;28;20389;-86
2021/12/17 10:12:05;;;;;;;18.25;16.35;;;26.10;99.90;;;;;;5078756;28;20027;-86
2021/12/17 10:14:32;;;;;;;17.90;16.08;;;26.70;99.90;;;;;;5078271;28;20028;-85
2021/12/17 10:17:11;;;;;;;18.48;16.02;;;27.40;99.90;;;;;;5076331;28;20044;-86
2021/12/17 10:19:48;;;;;;;17.65;15.85;;;27.50;99.90;;;;;;5066678;28;20029;-85
2021/12/17 10:22:17;;;;;;;17.45;15.73;;;26.90;99.90;;;;;;5076693;28;20118;-85
2021/12/17 10:25:08;;;;;;;19.67;17.67;;;27.40;99.90;;;;;;5074822;28;20073;-86
2021/12/17 10:27:39;;;;;;;16.98;15.15;;;26.90;99.90;;;;;;5057848;28;20024;-85
2021/12/17 10:30:16;;;;;;;15.70;14.20;;;27.10;99.90;;;;;;5074134;28;20059;-85
2021/12/17 10:32:45;;;;;;;15.48;13.93;;;25.60;99.90;;;;;;5077595;28;20024;-85
2021/12/17 10:35:11;;;;;;;15.63;13.93;;;26.80;99.90;;;;;;5076480;28;20032;-86
2021/12/17 10:37:48;;;;;;;14.57;13.18;;;27.30;99.90;;;;;;5076509;28;20033;-86
2021/12/17 10:40:21;;;;;;;15.65;14.18;;;27.80;99.90;;;;;;5076748;28;20494;-85
2021/12/17 10:42:58;;;;;;;15.23;13.63;;;27.40;99.90;;;;;;5074973;28;20089;-86
2021/12/17 10:45:27;;;;;;;15.27;13.70;;;27.60;99.90;;;;;;5056250;28;20500;-86
2021/12/17 10:50:48;;;;;;;15.73;14.23;;;26.90;99.90;;;;;;5077791;28;20037;-85
2021/12/17 10:53:14;;;;;;;14.88;13.50;;;27.80;99.90;;;;;;5076503;28;20024;-86
2021/12/17 10:55:45;;;;;;;15.55;14.05;;;27.40;99.90;;;;;;5070790;28;20025;-85
2021/12/17 10:58:11;;;;;;;14.85;13.45;;;27.60;99.90;;;;;;5069906;28;20116;-87
2021/12/17 11:01:02;;;;;;;15.27;13.85;;;27.60;99.90;;;;;;5087810;28;20048;-86
2021/12/17 11:03:29;;;;;;;16.00;14.40;;;28.30;99.90;;;;;;5056819;28;20451;-87
2021/12/17 11:05:55;;;;;;;15.63;14.15;;;28.00;99.90;;;;;;5071678;28;20377;-85
2021/12/17 11:08:31;;;;;;;16.75;15.15;;;27.70;99.90;;;;;;5074694;28;20028;-85
2021/12/17 11:11:10;;;;;;;15.27;13.75;;;28.00;99.90;;;;;;5066108;28;20488;-86
2021/12/17 11:13:58;;;;;;;14.95;13.55;;;26.50;99.90;;;;;;5074850;28;20396;-86
2021/12/17 11:16:26;;;;;;;15.13;13.73;;;23.80;99.90;;;;;;5075298;28;20111;-84
2021/12/17 11:18:53;;;;;;;15.60;13.95;;;24.50;99.90;;;;;;5074104;28;20024;-88
2021/12/17 11:21:19;;;;;;;14.05;12.65;;;24.60;99.90;;;;;;5071512;28;20039;-87
2021/12/17 11:23:45;;;;;;;14.07;12.68;;;25.90;99.90;;;;;;5075636;28;20037;-87
2021/12/17 11:26:11;;;;;;;14.40;13.05;;;25.30;99.90;;;;;;5075355;28;20496;-87
2021/12/17 11:28:37;;;;;;;13.45;12.20;;;24.50;99.90;;;;;;5075236;28;20097;-95
2021/12/17 11:31:04;;;;;;;14.05;12.70;;;23.60;99.90;;;;;;5076210;28;20476;-89
2021/12/17 11:33:31;;;;;;;17.48;13.32;;;23.60;99.90;;;;;;5071905;28;20071;-90
2021/12/17 11:35:56;;;;;;;13.82;12.52;;;23.40;99.90;;;;;;5072942;28;20021;-93
2021/12/17 11:38:44;;;;;;;12.88;11.68;;;25.60;99.90;;;;;;5066476;28;20378;-87
2021/12/17 11:41:10;;;;;;;13.32;12.13;;;25.50;99.90;;;;;;5081557;28;20045;-90
2021/12/17 11:44:01;;;;;;;13.80;12.48;;;26.00;99.90;;;;;;5080133;28;20189;-94
2021/12/17 11:46:31;;;;;;;13.77;12.48;;;25.70;99.90;;;;;;5078062;28;20032;-91
2021/12/17 11:49:00;;;;;;;13.90;12.32;;;25.30;99.90;;;;;;5076783;28;20029;-89
2021/12/17 11:51:33;;;;;;;13.32;12.13;;;25.50;99.90;;;;;;5086551;28;20025;-89
2021/12/17 11:54:26;;;;;;;13.50;12.20;;;24.30;99.90;;;;;;5070486;28;20066;-87
2021/12/17 11:56:54;;;;;;;13.98;12.57;;;24.90;99.90;;;;;;5093440;23;20477;-87
2021/12/17 11:59:29;;;;;;;17.70;12.85;;;25.00;99.90;;;;;;5038803;28;20405;-87
2021/12/17 12:02:24;;;;;;;13.73;12.35;;;24.10;99.90;;;;;;5037363;28;20473;-88
2021/12/17 12:04:54;;;;;;;14.48;13.07;;;23.40;99.90;;;;;;5011491;28;20494;-86
2021/12/17 12:07:20;;;;;;;13.73;12.10;;;24.40;99.90;;;;;;5037400;28;20519;-86
2021/12/17 12:09:57;;;;;;;13.98;12.57;;;25.10;99.90;;;;;;5036483;28;20108;-91
2021/12/17 12:12:42;;;;;;;14.80;12.50;;;25.70;99.90;;;;;;5020597;28;20516;-89
2021/12/17 12:15:16;;;;;;;13.15;11.85;;;25.60;99.90;;;;;;5046892;28;20430;-87
2021/12/17 12:17:57;;;;;;;14.20;12.65;;;25.60;99.90;;;;;;5037069;28;20103;-87
2021/12/17 12:20:52;;;;;;;13.48;12.18;;;25.70;99.90;;;;;;5032097;28;20018;-86
2021/12/17 12:23:29;;;;;;;14.50;13.10;;;24.20;99.90;;;;;;5032809;28;20049;-87
2021/12/17 12:26:13;;;;;;;13.88;12.57;;;23.00;99.90;;;;;;5036858;28;20029;-87
2021/12/17 12:28:47;;;;;;;14.15;12.73;;;22.40;99.90;;;;;;5037822;28;20029;-87
2021/12/17 12:31:17;;;;;;;16.95;12.35;;;24.30;99.90;;;;;;5037112;28;20033;-88
2021/12/17 12:34:05;;;;;;;13.98;12.38;;;23.80;99.90;;;;;;5035001;28;20104;-86
2021/12/17 12:36:53;;;;;;;16.30;12.75;;;22.90;99.90;;;;;;5019296;28;20022;-87
2021/12/17 12:39:38;;;;;;;14.07;12.57;;;21.90;99.90;;;;;;5032745;28;20056;-86
2021/12/17 12:42:16;;;;;;;13.60;12.30;;;22.10;99.90;;;;;;5015020;28;20029;-86
2021/12/17 12:45:07;;;;;;;14.20;12.70;;;22.40;99.90;;;;;;5039323;28;20061;-87
2021/12/17 12:47:35;;;;;;;13.60;12.07;;;21.60;99.90;;;;;;5025515;28;20037;-86
2021/12/17 12:50:06;;;;;;;14.85;12.23;;;21.30;99.90;;;;;;5041025;28;20038;-86
2021/12/17 12:52:32;;;;;;;13.60;12.18;;;21.90;99.90;;;;;;5040652;28;20144;-86
2021/12/17 12:55:36;;;;;;;13.63;12.32;;;22.80;99.90;;;;;;5040295;28;20033;-86
2021/12/17 12:58:06;;;;;;;14.57;12.52;;;23.50;99.90;;;;;;5018286;28;20080;-86
2021/12/17 13:00:48;;;;;;;14.10;12.60;;;23.90;99.90;;;;;;5036977;28;20079;-86
2021/12/17 13:03:26;;;;;;;14.30;12.77;;;22.50;99.90;;;;;;5036899;28;20045;-86
2021/12/17 13:05:53;;;;;;;18.92;13.48;;;21.80;99.90;;;;;;5014794;28;20025;-86
2021/12/17 13:08:20;;;;;;;14.20;12.80;;;20.80;99.90;;;;;;5037163;28;20449;-85
2021/12/17 13:10:59;;;;;;;16.15;13.10;;;20.60;99.90;;;;;;5035902;28;20025;-86
2021/12/17 13:23:56;;;;;;;12.90;11.60;;;21.40;99.90;;;;;;5031005;28;20096;-85
2021/12/17 13:26:25;;;;;;;12.50;11.20;;;22.50;99.90;;;;;;5035282;28;20401;-85
2021/12/17 13:28:59;;;;;;;12.38;11.18;;;21.80;99.90;;;;;;5035480;28;20025;-85
2021/12/17 13:31:47;;;;;;;12.20;10.95;;;22.00;99.90;;;;;;5035774;28;20025;-86
2021/12/17 13:34:25;;;;;;;13.20;11.57;;;22.00;99.90;;;;;;5035317;28;20489;-87
2021/12/17 13:37:02;;;;;;;12.20;11.00;;;22.00;99.90;;;;;;5037161;28;20036;-86
2021/12/17 13:39:32;;;;;;;13.02;11.85;;;22.10;99.90;;;;;;5020234;28;22873;-85
2021/12/17 13:41:58;;;;;;;13.77;12.32;;;20.50;99.90;;;;;;5034338;28;20482;-85
2021/12/17 13:44:41;;;;;;;12.75;11.45;;;20.70;99.90;;;;;;5035451;28;20022;-85
2021/12/17 13:47:13;;;;;;;16.77;11.95;;;21.00;99.90;;;;;;5036716;28;20029;-85
2021/12/17 13:49:46;;;;;;;13.98;12.18;;;19.90;99.90;;;;;;5035341;28;20507;-85
2021/12/17 13:52:12;;;;;;;14.38;12.88;;;19.00;99.90;;;;;;5034945;28;20026;-85
2021/12/17 13:54:39;;;;;;;13.10;11.80;;;19.40;99.90;;;;;;5034685;28;20029;-85
2021/12/17 13:57:05;;;;;;;13.57;12.18;;;19.40;99.90;;;;;;5035109;28;20049;-86
2021/12/17 13:59:35;;;;;;;12.88;11.57;;;19.70;99.90;;;;;;5034453;28;20033;-85
2021/12/17 14:02:17;;;;;;;13.57;11.52;;;20.10;99.90;;;;;;5034794;28;20022;-85
2021/12/17 14:05:02;;;;;;;13.38;11.98;;;19.80;99.90;;;;;;5034923;28;20025;-86
2021/12/17 14:07:33;;;;;;;12.95;11.60;;;19.70;99.90;;;;;;5035616;28;20025;-85
2021/12/17 14:10:16;;;;;;;13.98;12.52;;;19.10;99.90;;;;;;5034916;28;20502;-85
2021/12/17 14:12:44;;;;;;;13.07;11.77;;;19.30;99.90;;;;;;5034935;28;20548;-85
2021/12/17 14:15:20;;;;;;;12.52;11.27;;;19.50;99.90;;;;;;5034878;28;20553;-85
2021/12/17 14:17:49;;;;;;;13.90;11.25;;;19.30;99.90;;;;;;5034399;28;20489;-86
2021/12/17 14:20:22;;;;;;;13.68;10.73;;;19.30;99.90;;;;;;5035227;28;20105;-86
2021/12/17 14:22:51;;;;;;;18.25;11.43;;;19.30;99.90;;;;;;5033936;28;20386;-86
2021/12/17 14:25:51;;;;;;;11.80;10.60;;;19.40;99.90;;;;;;5035821;28;20057;-86
2021/12/17 14:28:25;;;;;;;11.95;10.55;;;19.20;99.90;;;;;;5009912;28;20120;-85
2021/12/17 14:30:59;;;;;;;12.20;11.00;;;19.50;99.90;;;;;;5034881;28;20482;-86
2021/12/17 14:33:37;;;;;;;12.80;11.23;;;19.20;99.90;;;;;;5018934;28;20025;-86
2021/12/17 14:36:07;;;;;;;12.48;11.27;;;19.10;99.90;;;;;;5033583;28;20033;-85
2021/12/17 14:38:51;;;;;;;13.63;11.77;;;18.40;99.90;;;;;;5031648;28;20029;-86
2021/12/17 14:41:49;;;;;;;13.43;12.02;;;17.90;99.90;;;;;;5034338;28;20152;-85
2021/12/17 14:46:58;;;;;;;13.13;11.35;;;17.30;99.90;;;;;;5033717;28;20021;-86
2021/12/17 14:57:20;;;;;;;14.52;11.80;;;17.00;99.90;;;;;;5033958;28;20025;-85
2021/12/17 15:01:13;;;;;;;14.18;11.20;;;16.90;99.90;;;;;;5034011;28;20021;-86
2021/12/17 15:06:05;;;;;;;12.27;10.98;;;16.40;99.90;;;;;;5032501;28;20484;-85
2021/12/17 15:08:32;;;;;;;13.68;11.38;;;16.40;99.90;;;;;;5033479;28;20017;-86
2021/12/17 15:10:59;;;;;;;15.40;11.45;;;16.40;99.90;;;;;;5033689;28;20500;-85
2021/12/17 15:13:25;;;;;;;14.63;11.20;;;16.00;99.90;;;;;;5033599;28;20033;-86
2021/12/17 15:15:52;;;;;;;14.52;11.85;;;16.10;99.90;;;;;;5034636;28;20107;-85
2021/12/17 15:18:19;;;;;;;14.50;11.95;;;15.20;99.90;;;;;;5033490;28;20038;-86
2021/12/17 15:20:48;;;;;;;13.95;12.45;;;14.80;99.90;;;;;;5032558;28;20045;-86
2021/12/17 15:23:15;;;;;;;15.60;12.73;;;13.80;99.90;;;;;;5033365;28;20041;-85
2021/12/17 15:25:42;;;;;;;16.58;12.65;;;13.70;99.90;;;;;;5034361;28;20030;-86
2021/12/17 15:28:10;;;;;;;14.68;11.80;;;13.50;99.90;;;;;;5033933;28;20124;-86
2021/12/17 15:30:40;;;;;;;15.65;12.40;;;13.50;99.90;;;;;;5016249;28;20060;-85
2021/12/17 15:33:06;;;;;;;14.15;12.05;;;13.10;99.90;;;;;;5033175;28;20025;-86
2021/12/17 15:35:32;;;;;;;15.57;11.77;;;12.70;99.90;;;;;;5014377;28;20194;-85
2021/12/17 15:37:59;;;;;;;13.80;11.20;;;12.40;99.90;;;;;;5033699;28;20482;-85
2021/12/17 15:40:25;;;;;;;14.93;11.75;;;12.20;99.90;;;;;;5033315;28;20065;-85
2021/12/17 15:42:52;;;;;;;14.18;12.07;;;11.70;99.90;;;;;;5034037;28;20083;-85
2021/12/17 15:45:19;;;;;;;16.52;13.40;;;11.40;99.90;;;;;;5033483;28;20472;-85
2021/12/17 15:47:45;;;;;;;17.67;12.80;;;11.10;99.90;;;;;;5032331;28;20504;-85